sensor_id;sensor_type;location;lat;lon;timestamp;temperature;humidity
44695;DHT22;32845;59.422;17.930;2023-01-25T00:00:00;4.80;99.90
44695;DHT22;32845;59.422;17.930;2023-01-25T00:04:30;4.80;99.90
44695;DHT22;32845;59.422;17.930;2023-01-25T00:09:02;4.80;99.90
44695;DHT22;32845;59.422;17.930;2023-01-25T00:13:32;4.90;99.90
44695;DHT22;32845;59.422;17.930;2023-01-25T00:18:03;4.90;99.90
44695;DHT22;32845;59.422;17.930;2023-01-25T00:22:34;4.90;99.90
44695;DHT22;32845;59.422;17.930;2023-01-25T00:27:05;4.90;99.90
44695;DHT22;32845;59.422;17.930;2023-01-25T00:31:57;4.90;99.90
44695;DHT22;32845;59.422;17.930;2023-01-25T00:41:07;5.00;99.90
44695;DHT22;32845;59.422;17.930;2023-01-25T00:45:38;5.10;99.90
44695;DHT22;32845;59.422;17.930;2023-01-25T00:50:09;5.10;99.90
44695;DHT22;32845;59.422;17.930;2023-01-25T00:54:40;5.10;99.90
44695;DHT22;32845;59.422;17.930;2023-01-25T00:59:12;5.10;99.90
44695;DHT22;32845;59.422;17.930;2023-01-25T01:03:42;5.20;99.90
44695;DHT22;32845;59.422;17.930;2023-01-25T01:08:14;5.10;99.90
44695;DHT22;32845;59.422;17.930;2023-01-25T01:12:45;5.20;99.90
44695;DHT22;32845;59.422;17.930;2023-01-25T01:17:15;5.20;99.90
44695;DHT22;32845;59.422;17.930;2023-01-25T01:21:46;5.30;99.90
44695;DHT22;32845;59.422;17.930;2023-01-25T01:26:17;5.30;99.90
44695;DHT22;32845;59.422;17.930;2023-01-25T01:31:03;5.30;99.90
44695;DHT22;32845;59.422;17.930;2023-01-25T01:35:34;5.40;99.90
44695;DHT22;32845;59.422;17.930;2023-01-25T01:40:05;5.40;99.90
44695;DHT22;32845;59.422;17.930;2023-01-25T01:44:52;5.40;99.90
44695;DHT22;32845;59.422;17.930;2023-01-25T01:49:28;5.40;99.90
44695;DHT22;32845;59.422;17.930;2023-01-25T01:54:15;5.50;99.90
44695;DHT22;32845;59.422;17.930;2023-01-25T01:58:48;5.50;99.90
44695;DHT22;32845;59.422;17.930;2023-01-25T02:03:20;5.50;99.90
44695;DHT22;32845;59.422;17.930;2023-01-25T02:07:53;5.50;99.90
44695;DHT22;32845;59.422;17.930;2023-01-25T02:12:25;5.50;99.90
44695;DHT22;32845;59.422;17.930;2023-01-25T02:16:57;5.60;99.90
44695;DHT22;32845;59.422;17.930;2023-01-25T02:21:33;5.60;99.90
44695;DHT22;32845;59.422;17.930;2023-01-25T02:26:06;5.60;99.90
44695;DHT22;32845;59.422;17.930;2023-01-25T02:30:38;5.60;99.90
44695;DHT22;32845;59.422;17.930;2023-01-25T02:35:18;5.60;99.90
44695;DHT22;32845;59.422;17.930;2023-01-25T02:39:49;5.60;99.90
44695;DHT22;32845;59.422;17.930;2023-01-25T02:44:24;5.60;99.90
44695;DHT22;32845;59.422;17.930;2023-01-25T02:48:56;5.60;99.90
44695;DHT22;32845;59.422;17.930;2023-01-25T02:53:27;5.60;99.90
44695;DHT22;32845;59.422;17.930;2023-01-25T02:57:57;5.60;99.90
44695;DHT22;32845;59.422;17.930;2023-01-25T03:02:28;5.60;99.90
44695;DHT22;32845;59.422;17.930;2023-01-25T03:06:59;5.60;99.90
44695;DHT22;32845;59.422;17.930;2023-01-25T03:11:29;5.70;99.90
44695;DHT22;32845;59.422;17.930;2023-01-25T03:16:03;5.70;99.90
44695;DHT22;32845;59.422;17.930;2023-01-25T03:20:34;5.70;99.90
44695;DHT22;32845;59.422;17.930;2023-01-25T03:25:05;5.70;99.90
44695;DHT22;32845;59.422;17.930;2023-01-25T03:29:36;5.70;99.90
44695;DHT22;32845;59.422;17.930;2023-01-25T03:34:07;5.70;99.90
44695;DHT22;32845;59.422;17.930;2023-01-25T03:38:38;5.70;99.90
44695;DHT22;32845;59.422;17.930;2023-01-25T03:43:08;5.80;99.90
44695;DHT22;32845;59.422;17.930;2023-01-25T03:47:40;5.70;99.90
44695;DHT22;32845;59.422;17.930;2023-01-25T03:52:11;5.70;99.90
44695;DHT22;32845;59.422;17.930;2023-01-25T03:56:42;5.80;99.90
44695;DHT22;32845;59.422;17.930;2023-01-25T04:01:13;5.80;99.90
44695;DHT22;32845;59.422;17.930;2023-01-25T04:05:43;5.80;99.90
44695;DHT22;32845;59.422;17.930;2023-01-25T04:10:14;5.80;99.90
44695;DHT22;32845;59.422;17.930;2023-01-25T04:14:45;5.80;99.90
44695;DHT22;32845;59.422;17.930;2023-01-25T04:19:15;5.80;99.90
44695;DHT22;32845;59.422;17.930;2023-01-25T04:23:46;5.80;99.90
44695;DHT22;32845;59.422;17.930;2023-01-25T04:28:17;5.80;99.90
44695;DHT22;32845;59.422;17.930;2023-01-25T04:32:47;5.80;99.90
44695;DHT22;32845;59.422;17.930;2023-01-25T04:37:18;5.80;99.90
44695;DHT22;32845;59.422;17.930;2023-01-25T04:41:49;5.80;99.90
44695;DHT22;32845;59.422;17.930;2023-01-25T04:46:19;5.80;99.90
44695;DHT22;32845;59.422;17.930;2023-01-25T04:50:50;5.80;99.90
44695;DHT22;32845;59.422;17.930;2023-01-25T04:55:21;5.80;99.90
44695;DHT22;32845;59.422;17.930;2023-01-25T04:59:52;5.80;99.90
44695;DHT22;32845;59.422;17.930;2023-01-25T05:04:22;5.80;99.90
44695;DHT22;32845;59.422;17.930;2023-01-25T05:08:53;5.80;99.90
44695;DHT22;32845;59.422;17.930;2023-01-25T05:13:24;5.80;99.90
44695;DHT22;32845;59.422;17.930;2023-01-25T05:17:55;5.80;99.90
44695;DHT22;32845;59.422;17.930;2023-01-25T05:22:25;5.80;99.90
44695;DHT22;32845;59.422;17.930;2023-01-25T05:26:56;5.80;99.90
44695;DHT22;32845;59.422;17.930;2023-01-25T05:31:30;5.90;99.90
44695;DHT22;32845;59.422;17.930;2023-01-25T05:36:00;5.90;99.90
44695;DHT22;32845;59.422;17.930;2023-01-25T05:40:31;5.90;99.90
44695;DHT22;32845;59.422;17.930;2023-01-25T05:45:02;5.90;99.90
44695;DHT22;32845;59.422;17.930;2023-01-25T05:49:33;5.90;99.90
44695;DHT22;32845;59.422;17.930;2023-01-25T05:54:05;5.90;99.90
44695;DHT22;32845;59.422;17.930;2023-01-25T05:58:37;5.90;99.90
44695;DHT22;32845;59.422;17.930;2023-01-25T06:03:07;5.80;99.90
44695;DHT22;32845;59.422;17.930;2023-01-25T06:07:38;5.80;99.90
44695;DHT22;32845;59.422;17.930;2023-01-25T06:12:09;5.90;99.90
44695;DHT22;32845;59.422;17.930;2023-01-25T06:16:40;5.90;99.90
44695;DHT22;32845;59.422;17.930;2023-01-25T06:21:11;5.90;99.90
44695;DHT22;32845;59.422;17.930;2023-01-25T06:25:42;5.90;99.90
44695;DHT22;32845;59.422;17.930;2023-01-25T06:30:13;5.90;99.90
44695;DHT22;32845;59.422;17.930;2023-01-25T06:34:43;5.90;99.90
44695;DHT22;32845;59.422;17.930;2023-01-25T06:39:15;5.90;99.90
44695;DHT22;32845;59.422;17.930;2023-01-25T06:43:49;6.00;99.90
44695;DHT22;32845;59.422;17.930;2023-01-25T06:48:20;5.90;99.90
44695;DHT22;32845;59.422;17.930;2023-01-25T06:52:54;5.90;99.90
44695;DHT22;32845;59.422;17.930;2023-01-25T06:57:25;6.00;99.90
44695;DHT22;32845;59.422;17.930;2023-01-25T07:01:56;6.00;99.90
44695;DHT22;32845;59.422;17.930;2023-01-25T07:06:31;6.00;99.90
44695;DHT22;32845;59.422;17.930;2023-01-25T07:11:05;6.10;99.90
44695;DHT22;32845;59.422;17.930;2023-01-25T07:15:36;6.10;99.90
44695;DHT22;32845;59.422;17.930;2023-01-25T07:20:07;6.10;99.90
44695;DHT22;32845;59.422;17.930;2023-01-25T07:24:38;6.10;99.90
44695;DHT22;32845;59.422;17.930;2023-01-25T07:29:13;6.20;99.90
44695;DHT22;32845;59.422;17.930;2023-01-25T07:33:48;6.20;99.90
44695;DHT22;32845;59.422;17.930;2023-01-25T07:38:19;6.20;99.90
44695;DHT22;32845;59.422;17.930;2023-01-25T07:42:51;6.20;99.90
44695;DHT22;32845;59.422;17.930;2023-01-25T07:47:22;6.30;99.90
44695;DHT22;32845;59.422;17.930;2023-01-25T07:51:52;6.30;99.90
44695;DHT22;32845;59.422;17.930;2023-01-25T07:56:25;6.30;99.90
44695;DHT22;32845;59.422;17.930;2023-01-25T08:00:57;6.30;99.90
44695;DHT22;32845;59.422;17.930;2023-01-25T08:05:27;6.30;99.90
44695;DHT22;32845;59.422;17.930;2023-01-25T08:09:58;6.30;99.90
44695;DHT22;32845;59.422;17.930;2023-01-25T08:14:29;6.30;99.90
44695;DHT22;32845;59.422;17.930;2023-01-25T08:19:01;6.30;99.90
44695;DHT22;32845;59.422;17.930;2023-01-25T08:23:32;6.40;99.90
44695;DHT22;32845;59.422;17.930;2023-01-25T08:28:03;6.40;99.90
44695;DHT22;32845;59.422;17.930;2023-01-25T08:32:34;6.40;99.90
44695;DHT22;32845;59.422;17.930;2023-01-25T08:37:05;6.40;99.90
44695;DHT22;32845;59.422;17.930;2023-01-25T08:41:36;6.40;99.90
44695;DHT22;32845;59.422;17.930;2023-01-25T08:46:07;6.40;99.90
44695;DHT22;32845;59.422;17.930;2023-01-25T08:50:38;6.40;99.90
44695;DHT22;32845;59.422;17.930;2023-01-25T08:55:08;6.40;99.90
44695;DHT22;32845;59.422;17.930;2023-01-25T08:59:39;6.50;99.90
44695;DHT22;32845;59.422;17.930;2023-01-25T09:04:10;6.50;99.90
44695;DHT22;32845;59.422;17.930;2023-01-25T09:08:41;6.50;99.90
44695;DHT22;32845;59.422;17.930;2023-01-25T09:13:12;6.50;99.90
44695;DHT22;32845;59.422;17.930;2023-01-25T09:17:43;6.50;99.90
44695;DHT22;32845;59.422;17.930;2023-01-25T09:22:14;6.60;99.90
44695;DHT22;32845;59.422;17.930;2023-01-25T09:26:45;6.60;99.90
44695;DHT22;32845;59.422;17.930;2023-01-25T09:31:16;6.60;99.90
44695;DHT22;32845;59.422;17.930;2023-01-25T09:35:48;6.60;99.90
44695;DHT22;32845;59.422;17.930;2023-01-25T09:40:21;6.60;99.90
44695;DHT22;32845;59.422;17.930;2023-01-25T09:54:44;6.60;99.90
44695;DHT22;32845;59.422;17.930;2023-01-25T09:59:18;6.60;99.90
44695;DHT22;32845;59.422;17.930;2023-01-25T10:04:01;6.70;99.90
44695;DHT22;32845;59.422;17.930;2023-01-25T10:08:56;6.70;99.90
44695;DHT22;32845;59.422;17.930;2023-01-25T10:13:30;6.70;99.90
44695;DHT22;32845;59.422;17.930;2023-01-25T10:18:09;6.70;99.90
44695;DHT22;32845;59.422;17.930;2023-01-25T10:32:28;6.80;99.90
44695;DHT22;32845;59.422;17.930;2023-01-25T10:41:45;6.80;99.90
44695;DHT22;32845;59.422;17.930;2023-01-25T10:46:22;6.80;99.90
44695;DHT22;32845;59.422;17.930;2023-01-25T10:50:55;6.80;99.90
44695;DHT22;32845;59.422;17.930;2023-01-25T10:55:26;6.90;99.90
44695;DHT22;32845;59.422;17.930;2023-01-25T10:59:59;6.90;99.90
44695;DHT22;32845;59.422;17.930;2023-01-25T11:04:34;6.90;99.90
44695;DHT22;32845;59.422;17.930;2023-01-25T11:09:32;6.90;99.90
44695;DHT22;32845;59.422;17.930;2023-01-25T11:14:24;6.90;99.90
44695;DHT22;32845;59.422;17.930;2023-01-25T11:19:00;6.90;99.90
44695;DHT22;32845;59.422;17.930;2023-01-25T11:23:32;6.90;99.90
44695;DHT22;32845;59.422;17.930;2023-01-25T11:28:18;6.90;99.90
44695;DHT22;32845;59.422;17.930;2023-01-25T11:32:49;6.90;99.90
44695;DHT22;32845;59.422;17.930;2023-01-25T11:42:19;6.70;99.90
44695;DHT22;32845;59.422;17.930;2023-01-25T11:51:57;6.60;99.90
44695;DHT22;32845;59.422;17.930;2023-01-25T12:01:18;6.40;99.90
44695;DHT22;32845;59.422;17.930;2023-01-25T12:16:18;6.30;99.90
44695;DHT22;32845;59.422;17.930;2023-01-25T12:31:16;6.20;99.90
44695;DHT22;32845;59.422;17.930;2023-01-25T12:40:45;6.10;99.90
44695;DHT22;32845;59.422;17.930;2023-01-25T12:45:21;6.10;99.90
44695;DHT22;32845;59.422;17.930;2023-01-25T12:50:02;6.00;99.90
44695;DHT22;32845;59.422;17.930;2023-01-25T12:54:38;6.00;99.90
44695;DHT22;32845;59.422;17.930;2023-01-25T12:59:17;6.00;99.90
44695;DHT22;32845;59.422;17.930;2023-01-25T13:18:46;6.10;99.90
44695;DHT22;32845;59.422;17.930;2023-01-25T13:23:35;6.10;99.90
44695;DHT22;32845;59.422;17.930;2023-01-25T13:28:40;6.20;99.90
44695;DHT22;32845;59.422;17.930;2023-01-25T13:33:31;6.20;99.90
44695;DHT22;32845;59.422;17.930;2023-01-25T13:38:04;6.20;99.90
44695;DHT22;32845;59.422;17.930;2023-01-25T13:42:37;6.20;99.90
44695;DHT22;32845;59.422;17.930;2023-01-25T13:47:14;6.10;99.90
44695;DHT22;32845;59.422;17.930;2023-01-25T13:51:46;6.10;99.90
44695;DHT22;32845;59.422;17.930;2023-01-25T13:56:33;6.10;99.90
44695;DHT22;32845;59.422;17.930;2023-01-25T14:01:12;6.00;99.90
44695;DHT22;32845;59.422;17.930;2023-01-25T14:05:51;6.00;99.90
44695;DHT22;32845;59.422;17.930;2023-01-25T14:10:25;6.00;99.90
44695;DHT22;32845;59.422;17.930;2023-01-25T14:14:57;6.00;99.90
44695;DHT22;32845;59.422;17.930;2023-01-25T14:19:40;6.00;99.90
44695;DHT22;32845;59.422;17.930;2023-01-25T14:24:16;6.00;99.90
44695;DHT22;32845;59.422;17.930;2023-01-25T14:28:53;6.10;99.90
44695;DHT22;32845;59.422;17.930;2023-01-25T14:33:30;6.10;99.90
44695;DHT22;32845;59.422;17.930;2023-01-25T14:38:15;6.00;99.90
44695;DHT22;32845;59.422;17.930;2023-01-25T14:42:48;6.00;99.90
44695;DHT22;32845;59.422;17.930;2023-01-25T14:47:30;6.10;99.90
44695;DHT22;32845;59.422;17.930;2023-01-25T14:52:02;6.00;99.90
44695;DHT22;32845;59.422;17.930;2023-01-25T14:56:46;6.00;99.90
44695;DHT22;32845;59.422;17.930;2023-01-25T15:01:30;6.00;99.90
44695;DHT22;32845;59.422;17.930;2023-01-25T15:06:02;6.00;99.90
44695;DHT22;32845;59.422;17.930;2023-01-25T15:10:35;6.00;99.90
44695;DHT22;32845;59.422;17.930;2023-01-25T15:15:18;6.00;99.90
44695;DHT22;32845;59.422;17.930;2023-01-25T15:19:52;6.00;99.90
44695;DHT22;32845;59.422;17.930;2023-01-25T15:24:23;5.90;99.90
44695;DHT22;32845;59.422;17.930;2023-01-25T15:28:58;5.90;99.90
44695;DHT22;32845;59.422;17.930;2023-01-25T15:33:29;5.90;99.90
44695;DHT22;32845;59.422;17.930;2023-01-25T15:38:01;5.90;99.90
44695;DHT22;32845;59.422;17.930;2023-01-25T15:42:32;5.90;99.90
44695;DHT22;32845;59.422;17.930;2023-01-25T15:47:03;5.90;99.90
44695;DHT22;32845;59.422;17.930;2023-01-25T15:51:34;5.90;99.90
44695;DHT22;32845;59.422;17.930;2023-01-25T15:56:14;5.90;99.90
44695;DHT22;32845;59.422;17.930;2023-01-25T16:00:46;5.80;99.90
44695;DHT22;32845;59.422;17.930;2023-01-25T16:05:18;5.90;99.90
44695;DHT22;32845;59.422;17.930;2023-01-25T16:09:49;5.80;99.90
44695;DHT22;32845;59.422;17.930;2023-01-25T16:14:20;5.80;99.90
44695;DHT22;32845;59.422;17.930;2023-01-25T16:18:53;5.80;99.90
44695;DHT22;32845;59.422;17.930;2023-01-25T16:23:23;5.80;99.90
44695;DHT22;32845;59.422;17.930;2023-01-25T16:27:54;5.80;99.90
44695;DHT22;32845;59.422;17.930;2023-01-25T16:32:25;5.80;99.90
44695;DHT22;32845;59.422;17.930;2023-01-25T16:36:55;5.90;99.90
44695;DHT22;32845;59.422;17.930;2023-01-25T16:41:29;5.80;99.90
44695;DHT22;32845;59.422;17.930;2023-01-25T16:45:59;5.80;99.90
44695;DHT22;32845;59.422;17.930;2023-01-25T16:50:30;5.80;99.90
44695;DHT22;32845;59.422;17.930;2023-01-25T16:55:01;5.80;99.90
44695;DHT22;32845;59.422;17.930;2023-01-25T16:59:31;5.80;99.90
44695;DHT22;32845;59.422;17.930;2023-01-25T17:04:02;5.80;99.90
44695;DHT22;32845;59.422;17.930;2023-01-25T17:08:33;5.80;99.90
44695;DHT22;32845;59.422;17.930;2023-01-25T17:13:04;5.80;99.90
44695;DHT22;32845;59.422;17.930;2023-01-25T17:17:35;5.80;99.90
44695;DHT22;32845;59.422;17.930;2023-01-25T17:22:06;5.80;99.90
44695;DHT22;32845;59.422;17.930;2023-01-25T17:26:37;5.80;99.90
44695;DHT22;32845;59.422;17.930;2023-01-25T17:31:22;5.80;99.90
44695;DHT22;32845;59.422;17.930;2023-01-25T17:35:53;5.90;99.90
44695;DHT22;32845;59.422;17.930;2023-01-25T17:40:27;5.90;99.90
44695;DHT22;32845;59.422;17.930;2023-01-25T17:44:58;5.90;99.90
44695;DHT22;32845;59.422;17.930;2023-01-25T17:49:29;5.90;99.90
44695;DHT22;32845;59.422;17.930;2023-01-25T17:54:00;5.90;99.90
44695;DHT22;32845;59.422;17.930;2023-01-25T17:58:34;5.90;99.90
44695;DHT22;32845;59.422;17.930;2023-01-25T18:03:06;5.90;99.90
44695;DHT22;32845;59.422;17.930;2023-01-25T18:07:37;5.90;99.90
44695;DHT22;32845;59.422;17.930;2023-01-25T18:12:08;5.90;99.90
44695;DHT22;32845;59.422;17.930;2023-01-25T18:16:39;5.90;99.90
44695;DHT22;32845;59.422;17.930;2023-01-25T18:21:13;5.90;99.90
44695;DHT22;32845;59.422;17.930;2023-01-25T18:25:44;5.90;99.90
44695;DHT22;32845;59.422;17.930;2023-01-25T18:34:58;5.90;99.90
44695;DHT22;32845;59.422;17.930;2023-01-25T18:39:29;5.90;99.90
44695;DHT22;32845;59.422;17.930;2023-01-25T18:44:00;5.90;99.90
44695;DHT22;32845;59.422;17.930;2023-01-25T18:48:31;5.90;99.90
44695;DHT22;32845;59.422;17.930;2023-01-25T18:53:01;5.90;99.90
44695;DHT22;32845;59.422;17.930;2023-01-25T18:57:32;5.90;99.90
44695;DHT22;32845;59.422;17.930;2023-01-25T19:02:03;5.90;99.90
44695;DHT22;32845;59.422;17.930;2023-01-25T19:06:34;5.90;99.90
44695;DHT22;32845;59.422;17.930;2023-01-25T19:11:07;5.90;99.90
44695;DHT22;32845;59.422;17.930;2023-01-25T19:15:38;5.90;99.90
44695;DHT22;32845;59.422;17.930;2023-01-25T19:20:09;5.90;99.90
44695;DHT22;32845;59.422;17.930;2023-01-25T19:24:40;5.90;99.90
44695;DHT22;32845;59.422;17.930;2023-01-25T19:29:12;5.90;99.90
44695;DHT22;32845;59.422;17.930;2023-01-25T19:33:43;5.90;99.90
44695;DHT22;32845;59.422;17.930;2023-01-25T19:38:14;5.80;99.90
44695;DHT22;32845;59.422;17.930;2023-01-25T19:42:45;5.90;99.90
44695;DHT22;32845;59.422;17.930;2023-01-25T19:47:15;5.80;99.90
44695;DHT22;32845;59.422;17.930;2023-01-25T19:51:46;5.80;99.90
44695;DHT22;32845;59.422;17.930;2023-01-25T19:56:22;5.80;99.90
44695;DHT22;32845;59.422;17.930;2023-01-25T20:00:52;5.80;99.90
44695;DHT22;32845;59.422;17.930;2023-01-25T20:05:23;5.70;99.90
44695;DHT22;32845;59.422;17.930;2023-01-25T20:09:54;5.70;99.90
44695;DHT22;32845;59.422;17.930;2023-01-25T20:14:24;5.70;99.90
44695;DHT22;32845;59.422;17.930;2023-01-25T20:18:55;5.60;99.90
44695;DHT22;32845;59.422;17.930;2023-01-25T20:23:33;5.60;99.90
44695;DHT22;32845;59.422;17.930;2023-01-25T20:28:04;5.50;99.90
44695;DHT22;32845;59.422;17.930;2023-01-25T20:32:35;5.40;99.90
44695;DHT22;32845;59.422;17.930;2023-01-25T20:37:05;5.40;99.90
44695;DHT22;32845;59.422;17.930;2023-01-25T20:41:36;5.30;99.90
44695;DHT22;32845;59.422;17.930;2023-01-25T20:46:07;5.30;99.90
44695;DHT22;32845;59.422;17.930;2023-01-25T20:50:37;5.30;99.90
44695;DHT22;32845;59.422;17.930;2023-01-25T20:55:08;5.20;99.90
44695;DHT22;32845;59.422;17.930;2023-01-25T20:59:39;5.20;99.90
44695;DHT22;32845;59.422;17.930;2023-01-25T21:04:10;5.20;99.90
44695;DHT22;32845;59.422;17.930;2023-01-25T21:08:41;5.20;99.90
44695;DHT22;32845;59.422;17.930;2023-01-25T21:13:12;5.20;99.90
44695;DHT22;32845;59.422;17.930;2023-01-25T21:17:42;5.20;99.90
44695;DHT22;32845;59.422;17.930;2023-01-25T21:22:13;5.20;99.90
44695;DHT22;32845;59.422;17.930;2023-01-25T21:26:44;5.10;99.90
44695;DHT22;32845;59.422;17.930;2023-01-25T21:31:17;5.10;99.90
44695;DHT22;32845;59.422;17.930;2023-01-25T21:35:48;5.10;99.90
44695;DHT22;32845;59.422;17.930;2023-01-25T21:40:22;5.10;99.90
44695;DHT22;32845;59.422;17.930;2023-01-25T21:44:53;5.10;99.90
44695;DHT22;32845;59.422;17.930;2023-01-25T21:49:42;5.00;99.90
44695;DHT22;32845;59.422;17.930;2023-01-25T21:54:33;5.00;99.90
44695;DHT22;32845;59.422;17.930;2023-01-25T21:59:09;5.10;99.90
44695;DHT22;32845;59.422;17.930;2023-01-25T22:03:40;5.00;99.90
44695;DHT22;32845;59.422;17.930;2023-01-25T22:08:11;5.10;99.90
44695;DHT22;32845;59.422;17.930;2023-01-25T22:12:42;5.00;99.90
44695;DHT22;32845;59.422;17.930;2023-01-25T22:17:12;5.10;99.90
44695;DHT22;32845;59.422;17.930;2023-01-25T22:21:43;5.10;99.90
44695;DHT22;32845;59.422;17.930;2023-01-25T22:26:16;5.10;99.90
44695;DHT22;32845;59.422;17.930;2023-01-25T22:30:47;5.10;99.90
44695;DHT22;32845;59.422;17.930;2023-01-25T22:35:18;5.10;99.90
44695;DHT22;32845;59.422;17.930;2023-01-25T22:39:49;5.10;99.90
44695;DHT22;32845;59.422;17.930;2023-01-25T22:44:20;5.10;99.90
44695;DHT22;32845;59.422;17.930;2023-01-25T22:48:50;5.10;99.90
44695;DHT22;32845;59.422;17.930;2023-01-25T22:53:21;5.10;99.90
44695;DHT22;32845;59.422;17.930;2023-01-25T22:57:52;5.10;99.90
44695;DHT22;32845;59.422;17.930;2023-01-25T23:02:22;5.00;99.90
44695;DHT22;32845;59.422;17.930;2023-01-25T23:06:53;5.00;99.90
44695;DHT22;32845;59.422;17.930;2023-01-25T23:11:42;5.00;99.90
44695;DHT22;32845;59.422;17.930;2023-01-25T23:16:12;5.00;99.90
44695;DHT22;32845;59.422;17.930;2023-01-25T23:20:43;5.00;99.90
44695;DHT22;32845;59.422;17.930;2023-01-25T23:25:14;5.00;99.90
44695;DHT22;32845;59.422;17.930;2023-01-25T23:29:48;5.00;99.90
44695;DHT22;32845;59.422;17.930;2023-01-25T23:34:19;5.00;99.90
44695;DHT22;32845;59.422;17.930;2023-01-25T23:38:50;5.00;99.90
44695;DHT22;32845;59.422;17.930;2023-01-25T23:43:21;4.90;99.90
44695;DHT22;32845;59.422;17.930;2023-01-25T23:47:52;4.90;99.90
44695;DHT22;32845;59.422;17.930;2023-01-25T23:52:22;4.90;99.90
44695;DHT22;32845;59.422;17.930;2023-01-25T23:56:53;4.90;99.90
